< < Back
Terminal Aerodrome Forecast


Current Version              Previous Versions:   1  2  3  4  5  6  7  8  9  

Terminal Aerodrome Forecast

024
FTUS42 KTAE 261655 AAA
TAFVLD
TAF AMD
KVLD 261655Z 2617/2712 12009KT P6SM VCTS BKN040CB
     FM262100 06005KT 6SM TSRA SCT025CB BKN040
     FM270100 VRB03KT P6SM SCT040 BKN250=



Latest METAR

664
SAUS70 KWBC 261700 RRK
MTRVLD
METAR KVLD 261653Z 12011KT 10SM -TSRA FEW043 SCT055 BKN095 28/25 A3013
RMK AO2 LTG DSNT N AND NW RAB42 TSB32 SLP208 P0000
T02780250


USA.gov is the U.S. government's official web portal to all federal, state and local government web resources and services.